Gion Trader — DUGP — position and weather

sailwx.info

Track history (hours):
 
Tides and Currents Weather Stations Pressure Air Temp Water Temp Dewpoint Dewpoint Depression Visibility Wind Speed Wind Dir Waves Ship Positions

Gion Trader

Last reported at 2017-Nov-07 04:07 UTC. Time now 2017-Dec-11 19:12 UTC.
Position S 24°45' W 046°28'.
Warning: this ship's position is 34 days out of date.

Length 146 m; draft 7.4 m.

Type: Tanker. MMSI: 548901000.

Date/timePositionNaut miles runAvg speedWind from/ knotsBaromVisibWave heightAir tempDewpointWater temp
2017-Nov-07 04:07S 24°45' W 046°28'214.4
2017-Nov-07 04:00S 24°43' W 046°28'714.4
2017-Nov-07 03:30S 24°36' W 046°26'714.2
2017-Nov-07 03:00S 24°29' W 046°24'713.7
2017-Nov-07 02:30S 24°22' W 046°24'713.3
2017-Nov-07 02:00S 24°16' W 046°25'713.8
2017-Nov-07 01:30S 24°09' W 046°24'714.1
2017-Nov-07 01:00S 24°02' W 046°21'4 7.6
2017-Nov-07 00:30S 23°60' W 046°18'2 0.1
2017-Nov-05 17:38S 23°57' W 046°18'1 8.5
2017-Nov-05 17:29S 23°58' W 046°18'3 6.1
2017-Nov-05 17:00S 24°00' W 046°20'611.3
2017-Nov-05 16:31S 24°05' W 046°22'714.7
2017-Nov-05 16:00S 24°13' W 046°23'5 9.7
2017-Nov-05 15:31S 24°17' W 046°20'714.3
2017-Nov-05 15:01S 24°22' W 046°15'713.3
2017-Nov-05 14:30S 24°26' W 046°09'  
Track history (hours):
 
Tides and Currents Weather Stations Pressure Air Temp Water Temp Dewpoint Dewpoint Depression Visibility Wind Speed Wind Dir Waves Ship Positions

Gion Trader

Last reported at 2017-Nov-07 04:07 UTC. Time now 2017-Dec-11 19:12 UTC.
Position S 24°45' W 046°28'.
Warning: this ship's position is 34 days out of date.

Length 146 m; draft 7.4 m.

Type: Tanker. MMSI: 548901000.

Date/timePositionNaut miles runAvg speedWind from/ knotsBaromVisibWave heightAir tempDewpointWater temp
2017-Nov-07 04:07S 24°45' W 046°28'214.4
2017-Nov-07 04:00S 24°43' W 046°28'714.4
2017-Nov-07 03:30S 24°36' W 046°26'714.2
2017-Nov-07 03:00S 24°29' W 046°24'713.7
2017-Nov-07 02:30S 24°22' W 046°24'713.3
2017-Nov-07 02:00S 24°16' W 046°25'713.8
2017-Nov-07 01:30S 24°09' W 046°24'714.1
2017-Nov-07 01:00S 24°02' W 046°21'4 7.6
2017-Nov-07 00:30S 23°60' W 046°18'2 0.1
2017-Nov-05 17:38S 23°57' W 046°18'1 8.5
2017-Nov-05 17:29S 23°58' W 046°18'3 6.1
2017-Nov-05 17:00S 24°00' W 046°20'611.3
2017-Nov-05 16:31S 24°05' W 046°22'714.7
2017-Nov-05 16:00S 24°13' W 046°23'5 9.7
2017-Nov-05 15:31S 24°17' W 046°20'714.3
2017-Nov-05 15:01S 24°22' W 046°15'713.3
2017-Nov-05 14:30S 24°26' W 046°09'  

Dump ship's entire track history